Time;durP1;ratioP1;P1;durP2;ratioP2;P2;SDS_P1;SDS_P2;PMS_P1;PMS_P2;Temp;Humidity;BMP_temperature;BMP_pressure;BME280_temperature;BME280_humidity;BME280_pressure;Samples;Min_cycle;Max_cycle;Signal;HPM_P1;HPM_P2
2022/01/03 00:02:23;;;;;;;0.60;0.30;;;12.10;99.90;;;;;;5114208;28;20502;-57
2022/01/03 00:04:52;;;;;;;0.50;0.30;;;12.20;99.90;;;;;;5114557;28;20424;-56
2022/01/03 00:07:19;;;;;;;0.90;0.30;;;12.20;99.90;;;;;;5114129;28;20470;-57
2022/01/03 00:09:46;;;;;;;0.70;0.30;;;12.10;99.90;;;;;;5113499;28;20423;-58
2022/01/03 00:12:13;;;;;;;0.70;0.30;;;12.10;99.90;;;;;;5114350;28;20778;-55
2022/01/03 00:14:41;;;;;;;1.60;0.40;;;12.10;99.90;;;;;;5114217;28;20427;-57
2022/01/03 00:17:08;;;;;;;0.50;0.30;;;12.20;99.90;;;;;;5115238;28;20416;-57
2022/01/03 00:19:36;;;;;;;1.00;0.30;;;12.10;99.90;;;;;;5114529;28;20432;-57
2022/01/03 00:22:07;;;;;;;0.50;0.30;;;12.20;99.90;;;;;;5114481;28;20521;-55
2022/01/03 00:24:36;;;;;;;0.43;0.30;;;12.20;99.90;;;;;;5113105;28;20522;-57
2022/01/03 00:27:05;;;;;;;0.60;0.30;;;12.20;99.90;;;;;;5111794;28;20429;-57
2022/01/03 00:29:43;;;;;;;0.60;0.30;;;12.30;99.90;;;;;;5112622;28;20910;-57
2022/01/03 00:32:11;;;;;;;0.60;0.20;;;12.40;99.90;;;;;;5112197;28;20882;-56
2022/01/03 00:34:39;;;;;;;1.00;0.30;;;12.40;99.90;;;;;;5111906;28;20424;-57
2022/01/03 00:37:09;;;;;;;1.90;0.30;;;12.40;99.90;;;;;;5111331;28;20412;-57
2022/01/03 00:39:37;;;;;;;0.50;0.20;;;12.40;99.90;;;;;;5113215;28;20464;-57
2022/01/03 00:42:05;;;;;;;0.70;0.30;;;12.50;99.90;;;;;;5113752;28;20412;-55
2022/01/03 00:44:32;;;;;;;0.50;0.25;;;12.50;99.90;;;;;;5113941;28;20428;-56
2022/01/03 00:46:59;;;;;;;0.50;0.30;;;12.40;99.90;;;;;;5115009;28;20428;-55
2022/01/03 00:49:27;;;;;;;0.50;0.30;;;12.40;99.90;;;;;;5115220;28;20501;-56
2022/01/03 00:51:54;;;;;;;0.68;0.30;;;12.40;99.90;;;;;;5115189;28;20503;-57
2022/01/03 00:54:22;;;;;;;0.90;0.30;;;12.40;99.90;;;;;;5114950;28;20497;-52
2022/01/03 00:56:54;;;;;;;0.50;0.30;;;12.40;99.90;;;;;;5112818;28;20571;-56
2022/01/03 00:59:26;;;;;;;0.57;0.25;;;12.40;99.90;;;;;;5113642;28;20835;-57
2022/01/03 01:01:55;;;;;;;1.00;0.30;;;12.40;99.90;;;;;;5114124;28;20839;-55
2022/01/03 01:04:23;;;;;;;1.30;0.30;;;12.40;99.90;;;;;;5113533;28;20523;-56
2022/01/03 01:06:54;;;;;;;2.60;0.30;;;12.30;99.90;;;;;;5113021;28;20731;-57
2022/01/03 01:09:25;;;;;;;1.00;0.20;;;12.20;99.90;;;;;;5113849;28;20435;-57
2022/01/03 01:11:54;;;;;;;1.10;0.30;;;12.20;99.90;;;;;;5114964;28;20721;-55
2022/01/03 01:14:22;;;;;;;1.30;0.30;;;12.20;99.90;;;;;;5114892;28;20427;-56
2022/01/03 01:16:49;;;;;;;1.90;0.30;;;12.20;99.90;;;;;;5114644;28;20461;-57
2022/01/03 01:19:18;;;;;;;2.65;0.30;;;12.20;99.90;;;;;;5114464;28;20855;-56
2022/01/03 01:21:46;;;;;;;0.50;0.20;;;12.20;99.90;;;;;;5114731;28;20427;-55
2022/01/03 01:24:13;;;;;;;1.00;0.20;;;12.30;99.90;;;;;;5116918;28;20431;-57
2022/01/03 01:29:28;;;;;;;1.17;0.30;;;12.20;99.90;;;;;;5114702;28;20533;-56
2022/01/03 01:32:01;;;;;;;0.65;0.30;;;12.20;99.90;;;;;;5115208;28;20877;-57
2022/01/03 01:34:30;;;;;;;0.50;0.30;;;12.10;99.90;;;;;;5115799;28;20436;-57
2022/01/03 01:37:00;;;;;;;0.52;0.25;;;12.10;99.90;;;;;;5116124;28;20842;-57
2022/01/03 01:39:29;;;;;;;0.88;0.30;;;12.10;99.90;;;;;;5116557;28;20428;-57
2022/01/03 01:42:06;;;;;;;0.55;0.30;;;12.10;99.90;;;;;;5117133;28;20416;-56
2022/01/03 01:44:36;;;;;;;1.50;0.30;;;12.10;99.90;;;;;;5117381;28;20771;-57
2022/01/03 01:47:05;;;;;;;1.10;0.30;;;12.10;99.90;;;;;;5118197;28;20495;-57
2022/01/03 01:49:44;;;;;;;0.80;0.28;;;12.10;99.90;;;;;;5118268;28;20432;-57
2022/01/03 01:52:17;;;;;;;1.00;0.20;;;12.00;99.90;;;;;;5118672;28;20419;-57
2022/01/03 01:54:51;;;;;;;1.02;0.30;;;12.00;99.90;;;;;;5118212;28;20427;-57
2022/01/03 01:57:21;;;;;;;2.20;0.30;;;12.00;99.90;;;;;;5117808;28;20511;-55
2022/01/03 02:00:03;;;;;;;0.50;0.30;;;11.90;99.90;;;;;;5117906;28;20432;-56
2022/01/03 02:02:36;;;;;;;0.65;0.20;;;12.20;99.90;;;;;;5118000;28;20428;-58
2022/01/03 02:05:20;;;;;;;0.90;0.20;;;12.10;99.90;;;;;;5117878;28;20477;-56
2022/01/03 02:08:04;;;;;;;0.70;0.30;;;12.00;99.90;;;;;;5118084;28;20432;-57
2022/01/03 02:10:38;;;;;;;1.43;0.30;;;12.00;99.90;;;;;;5117955;28;20428;-58
2022/01/03 02:13:07;;;;;;;1.50;0.30;;;12.00;99.90;;;;;;5115800;28;20417;-56
2022/01/03 02:15:37;;;;;;;0.52;0.20;;;11.90;99.90;;;;;;5115690;28;20416;-57
2022/01/03 02:18:05;;;;;;;2.60;0.30;;;11.90;99.90;;;;;;5117680;28;20438;-55
2022/01/03 02:20:33;;;;;;;0.73;0.40;;;12.00;99.90;;;;;;5117259;28;20420;-57
2022/01/03 02:23:01;;;;;;;0.60;0.30;;;11.90;99.90;;;;;;5115778;28;20424;-57
2022/01/03 02:25:28;;;;;;;2.03;0.30;;;11.90;99.90;;;;;;5114734;28;20464;-57
2022/01/03 02:27:56;;;;;;;0.50;0.20;;;11.90;99.90;;;;;;5114329;28;20498;-55
2022/01/03 02:30:25;;;;;;;2.00;0.30;;;11.80;99.90;;;;;;5114833;28;20424;-57
2022/01/03 02:32:53;;;;;;;1.20;0.30;;;11.80;99.90;;;;;;5114156;28;20763;-57
2022/01/03 02:35:20;;;;;;;1.10;0.30;;;11.80;99.90;;;;;;5113465;28;20481;-56
2022/01/03 02:37:49;;;;;;;1.70;0.30;;;11.80;99.90;;;;;;5113873;28;20420;-58
2022/01/03 02:40:18;;;;;;;0.68;0.30;;;11.80;99.90;;;;;;5116069;28;20426;-57
2022/01/03 02:42:45;;;;;;;1.00;0.30;;;11.80;99.90;;;;;;5117465;28;20776;-57
2022/01/03 02:45:15;;;;;;;0.50;0.30;;;11.80;99.90;;;;;;5117348;28;20484;-56
2022/01/03 02:47:45;;;;;;;2.00;0.30;;;11.80;99.90;;;;;;5118001;28;20428;-57
2022/01/03 02:50:14;;;;;;;0.60;0.30;;;11.80;99.90;;;;;;5116096;28;20481;-57
2022/01/03 02:52:42;;;;;;;1.50;0.30;;;11.90;99.90;;;;;;5115528;28;20477;-57
2022/01/03 02:55:11;;;;;;;1.77;0.30;;;11.90;99.90;;;;;;5116559;28;20424;-55
2022/01/03 02:57:40;;;;;;;1.15;0.40;;;11.80;99.90;;;;;;5116424;28;20462;-58
2022/01/03 03:00:11;;;;;;;1.30;0.30;;;11.90;99.90;;;;;;5116481;28;20789;-54
2022/01/03 03:02:38;;;;;;;1.07;0.30;;;11.80;99.90;;;;;;5116575;28;20420;-56
2022/01/03 03:05:08;;;;;;;1.10;0.30;;;11.70;99.90;;;;;;5116981;28;20435;-57
2022/01/03 03:07:39;;;;;;;0.93;0.30;;;11.70;99.90;;;;;;5116204;28;20919;-57
2022/01/03 03:10:08;;;;;;;1.48;0.40;;;11.70;99.90;;;;;;5116782;28;20424;-56
2022/01/03 03:12:36;;;;;;;0.50;0.30;;;11.70;99.90;;;;;;5116553;28;20420;-57
2022/01/03 03:15:05;;;;;;;0.95;0.30;;;11.70;99.90;;;;;;5116635;28;20443;-58
2022/01/03 03:17:32;;;;;;;2.40;0.30;;;11.60;99.90;;;;;;5116584;28;20416;-56
2022/01/03 03:20:01;;;;;;;0.60;0.30;;;11.60;99.90;;;;;;5116442;28;20427;-57
2022/01/03 03:22:29;;;;;;;0.80;0.30;;;11.60;99.90;;;;;;5116824;28;20466;-57
2022/01/03 03:25:01;;;;;;;0.80;0.40;;;11.60;99.90;;;;;;5116750;28;20428;-57
2022/01/03 03:27:28;;;;;;;2.20;0.30;;;11.50;99.90;;;;;;5116826;28;20797;-57
2022/01/03 03:29:57;;;;;;;2.00;0.30;;;11.50;99.90;;;;;;5116661;28;20428;-56
2022/01/03 03:32:26;;;;;;;0.50;0.25;;;11.60;99.90;;;;;;5116427;28;20831;-53
2022/01/03 03:34:53;;;;;;;0.80;0.30;;;11.50;99.90;;;;;;5116094;28;20424;-57
2022/01/03 03:37:21;;;;;;;0.77;0.30;;;11.60;99.90;;;;;;5115863;28;20472;-57
2022/01/03 03:39:48;;;;;;;0.88;0.28;;;11.60;99.90;;;;;;5115765;28;20520;-57
2022/01/03 03:42:16;;;;;;;1.10;0.20;;;11.50;99.90;;;;;;5114922;28;20893;-58
2022/01/03 03:44:45;;;;;;;0.80;0.30;;;11.50;99.90;;;;;;5114599;28;20473;-58
2022/01/03 03:47:13;;;;;;;1.05;0.20;;;11.40;99.90;;;;;;5114810;28;20470;-57
2022/01/03 03:49:40;;;;;;;0.90;0.20;;;11.40;99.90;;;;;;5114203;28;20435;-57
2022/01/03 03:52:08;;;;;;;0.50;0.30;;;11.40;99.90;;;;;;5113686;28;20817;-57
2022/01/03 03:54:36;;;;;;;1.60;0.30;;;11.40;99.90;;;;;;5113476;28;20424;-58
2022/01/03 03:57:04;;;;;;;0.60;0.30;;;11.40;99.90;;;;;;5113390;28;20835;-54
2022/01/03 03:59:32;;;;;;;1.00;0.30;;;11.30;99.90;;;;;;5114072;28;20723;-54
2022/01/03 04:01:59;;;;;;;0.70;0.20;;;11.30;99.90;;;;;;5114441;28;20447;-57
2022/01/03 04:04:28;;;;;;;0.93;0.30;;;11.40;99.90;;;;;;5113466;28;20857;-55
2022/01/03 04:06:55;;;;;;;1.80;0.30;;;11.40;99.90;;;;;;5113215;28;20717;-57
2022/01/03 04:09:22;;;;;;;1.35;0.20;;;11.30;99.90;;;;;;5114690;28;20494;-57
2022/01/03 04:11:50;;;;;;;0.88;0.30;;;11.30;99.90;;;;;;5115167;28;20510;-57
2022/01/03 04:14:17;;;;;;;1.60;0.30;;;11.30;99.90;;;;;;5115214;28;20433;-57
2022/01/03 04:16:45;;;;;;;0.80;0.20;;;11.30;99.90;;;;;;5115031;28;20413;-57
2022/01/03 04:19:12;;;;;;;1.10;0.20;;;11.30;99.90;;;;;;5115283;28;20424;-57
2022/01/03 04:21:43;;;;;;;0.70;0.20;;;11.30;99.90;;;;;;5114984;28;20416;-57
2022/01/03 04:24:12;;;;;;;0.60;0.30;;;11.40;99.90;;;;;;5114990;28;20429;-58
2022/01/03 04:26:40;;;;;;;1.20;0.30;;;11.30;99.90;;;;;;5114589;28;20774;-58
2022/01/03 04:29:08;;;;;;;0.60;0.30;;;11.20;99.90;;;;;;5114607;28;20786;-57
2022/01/03 04:31:35;;;;;;;0.90;0.20;;;11.20;99.90;;;;;;5115176;28;20816;-57
2022/01/03 04:34:02;;;;;;;0.97;0.30;;;11.20;99.90;;;;;;5115807;28;20850;-56
2022/01/03 04:36:29;;;;;;;0.57;0.20;;;11.20;99.90;;;;;;5115509;28;20416;-56
2022/01/03 04:38:58;;;;;;;1.20;0.30;;;11.20;99.90;;;;;;5114500;28;20424;-56
2022/01/03 04:41:25;;;;;;;1.60;0.20;;;11.20;99.90;;;;;;5114706;28;20424;-57
2022/01/03 04:43:52;;;;;;;1.40;0.20;;;11.20;99.90;;;;;;5114997;28;20431;-57
2022/01/03 04:46:19;;;;;;;0.90;0.30;;;11.30;99.90;;;;;;5113596;28;20423;-56
2022/01/03 04:48:46;;;;;;;1.00;0.20;;;11.20;99.90;;;;;;5113314;28;20440;-56
2022/01/03 04:51:13;;;;;;;0.85;0.28;;;11.20;99.90;;;;;;5113747;28;20416;-56
2022/01/03 04:53:41;;;;;;;2.15;0.30;;;11.20;99.90;;;;;;5113746;28;20428;-56
2022/01/03 04:56:11;;;;;;;1.15;0.30;;;11.20;99.90;;;;;;5113637;28;20428;-57
2022/01/03 04:58:39;;;;;;;0.70;0.32;;;11.20;99.90;;;;;;5117668;28;20416;-55
2022/01/03 05:01:07;;;;;;;0.80;0.20;;;11.10;99.90;;;;;;5118002;28;20420;-57
2022/01/03 05:03:34;;;;;;;1.35;0.30;;;11.10;99.90;;;;;;5118627;28;20424;-56
2022/01/03 05:06:02;;;;;;;2.50;0.30;;;11.00;99.90;;;;;;5119134;28;20842;-54
2022/01/03 05:08:29;;;;;;;0.68;0.30;;;10.90;99.90;;;;;;5118921;28;20439;-52
2022/01/03 05:10:56;;;;;;;1.10;0.30;;;10.90;99.90;;;;;;5118607;28;20515;-56
2022/01/03 05:13:24;;;;;;;2.33;0.30;;;10.90;99.90;;;;;;5117688;28;20839;-55
2022/01/03 05:15:51;;;;;;;0.60;0.30;;;10.80;99.90;;;;;;5118913;28;20428;-51
2022/01/03 05:18:18;;;;;;;2.10;0.30;;;10.70;99.90;;;;;;5117878;28;20423;-53
2022/01/03 05:20:46;;;;;;;2.22;0.30;;;10.70;99.90;;;;;;5117956;28;20477;-50
2022/01/03 05:23:13;;;;;;;1.73;0.30;;;10.50;99.90;;;;;;5119042;28;20427;-51
2022/01/03 05:25:40;;;;;;;1.33;0.30;;;10.50;99.90;;;;;;5118719;28;20901;-55
2022/01/03 05:28:07;;;;;;;1.48;0.30;;;10.50;99.90;;;;;;5118434;28;20419;-55
2022/01/03 05:30:36;;;;;;;1.08;0.30;;;10.50;99.90;;;;;;5118884;28;20906;-56
2022/01/03 05:33:03;;;;;;;1.20;0.30;;;10.50;99.90;;;;;;5118372;28;20420;-55
2022/01/03 05:35:30;;;;;;;0.52;0.20;;;10.40;99.90;;;;;;5118178;28;20424;-55
2022/01/03 05:37:57;;;;;;;2.20;0.30;;;10.30;99.90;;;;;;5118729;28;20415;-53
2022/01/03 05:40:24;;;;;;;2.20;0.40;;;10.30;99.90;;;;;;5118253;28;20689;-56
2022/01/03 05:42:52;;;;;;;1.70;0.30;;;10.30;99.90;;;;;;5117625;28;20846;-53
2022/01/03 05:45:20;;;;;;;1.20;0.30;;;10.20;99.90;;;;;;5118321;28;20424;-54
2022/01/03 05:47:48;;;;;;;1.58;0.32;;;10.30;99.90;;;;;;5118154;28;20412;-55
2022/01/03 05:50:17;;;;;;;0.73;0.40;;;10.40;99.90;;;;;;5118770;28;20431;-55
2022/01/03 05:52:44;;;;;;;2.28;0.32;;;10.40;99.90;;;;;;5118338;28;20416;-56
2022/01/03 05:55:11;;;;;;;1.30;0.30;;;10.30;99.90;;;;;;5118084;28;20424;-56
2022/01/03 05:57:39;;;;;;;1.27;0.30;;;10.30;99.90;;;;;;5117899;28;20824;-56
2022/01/03 06:00:09;;;;;;;0.90;0.30;;;10.10;99.90;;;;;;5116979;28;20424;-55
2022/01/03 06:02:40;;;;;;;1.50;0.60;;;10.10;99.90;;;;;;5118063;28;20862;-53
2022/01/03 06:05:17;;;;;;;1.02;0.30;;;10.10;99.90;;;;;;5116847;28;20451;-53
2022/01/03 06:07:44;;;;;;;1.70;0.50;;;10.10;99.90;;;;;;5117091;28;20440;-53
2022/01/03 06:10:15;;;;;;;0.77;0.30;;;10.00;99.90;;;;;;5117039;28;20432;-56
2022/01/03 06:12:45;;;;;;;0.70;0.30;;;10.00;99.90;;;;;;5116754;28;20443;-55
2022/01/03 06:15:14;;;;;;;1.00;0.40;;;10.00;99.90;;;;;;5117134;28;20731;-55
2022/01/03 06:17:42;;;;;;;1.10;0.30;;;10.10;99.90;;;;;;5116305;28;20503;-56
2022/01/03 06:20:12;;;;;;;0.98;0.30;;;10.20;99.90;;;;;;5116294;28;20420;-53
2022/01/03 06:22:40;;;;;;;1.33;0.30;;;10.10;99.90;;;;;;5116634;28;20443;-56
2022/01/03 06:25:08;;;;;;;0.90;0.30;;;10.10;99.90;;;;;;5117580;28;20464;-54
2022/01/03 06:27:35;;;;;;;1.00;0.30;;;10.20;99.90;;;;;;5117523;28;20489;-49
2022/01/03 06:30:02;;;;;;;1.17;0.30;;;10.20;99.90;;;;;;5117011;28;20432;-56
2022/01/03 06:32:29;;;;;;;1.00;0.30;;;10.30;99.90;;;;;;5116343;28;20478;-54
2022/01/03 06:34:56;;;;;;;2.50;0.30;;;10.30;99.90;;;;;;5116596;28;20424;-56
2022/01/03 06:37:24;;;;;;;1.23;0.30;;;10.20;99.90;;;;;;5116607;28;20761;-50
2022/01/03 06:39:51;;;;;;;1.60;0.40;;;10.10;99.90;;;;;;5116713;28;20420;-56
2022/01/03 06:42:19;;;;;;;1.17;0.38;;;10.10;99.90;;;;;;5116855;28;20428;-52
2022/01/03 06:44:48;;;;;;;1.23;0.30;;;10.10;99.90;;;;;;5115789;28;20511;-54
2022/01/03 06:47:15;;;;;;;0.88;0.40;;;10.00;99.90;;;;;;5116525;28;20503;-50
2022/01/03 06:49:42;;;;;;;2.33;0.40;;;10.00;99.90;;;;;;5116258;28;20424;-54
2022/01/03 06:52:09;;;;;;;1.80;0.50;;;10.10;99.90;;;;;;5116324;28;20769;-54
2022/01/03 06:54:38;;;;;;;1.90;0.50;;;10.20;99.90;;;;;;5116507;28;20857;-55
2022/01/03 06:57:05;;;;;;;1.20;0.40;;;10.20;99.90;;;;;;5114663;28;20784;-55
2022/01/03 06:59:32;;;;;;;2.15;0.40;;;10.10;99.90;;;;;;5115068;28;20425;-54
2022/01/03 07:01:59;;;;;;;1.17;0.30;;;10.10;99.90;;;;;;5116188;28;20412;-53
2022/01/03 07:04:27;;;;;;;1.10;0.50;;;10.10;99.90;;;;;;5115547;28;20481;-54
2022/01/03 07:06:54;;;;;;;1.70;0.43;;;10.10;99.90;;;;;;5116603;28;20419;-55
2022/01/03 07:09:21;;;;;;;0.88;0.40;;;10.10;99.90;;;;;;5116323;28;20432;-53
2022/01/03 07:11:49;;;;;;;1.20;0.40;;;10.20;99.90;;;;;;5116028;28;20412;-54
2022/01/03 07:19:51;;;;;;;1.90;0.40;;;10.40;99.90;;;;;;5110924;28;20422;-53
2022/01/03 07:22:18;;;;;;;1.48;0.40;;;10.40;99.90;;;;;;5111904;28;20423;-52
2022/01/03 07:24:46;;;;;;;1.27;0.30;;;10.50;99.90;;;;;;5111607;28;20428;-53
2022/01/03 07:27:15;;;;;;;1.80;0.40;;;10.60;99.90;;;;;;5112901;28;20490;-51
2022/01/03 07:29:43;;;;;;;2.63;0.40;;;10.60;99.90;;;;;;5114109;28;20831;-55
2022/01/03 07:32:11;;;;;;;1.85;0.30;;;10.50;99.90;;;;;;5114051;28;20416;-52
2022/01/03 07:34:38;;;;;;;0.90;0.40;;;10.30;99.90;;;;;;5115418;28;20428;-51
2022/01/03 07:37:06;;;;;;;1.13;0.40;;;10.20;99.90;;;;;;5115817;28;20480;-51
2022/01/03 07:39:34;;;;;;;1.42;0.40;;;10.30;99.90;;;;;;5115317;28;20466;-48
2022/01/03 07:42:01;;;;;;;1.83;0.50;;;10.40;99.90;;;;;;5114882;28;20792;-49
2022/01/03 07:44:30;;;;;;;3.30;0.40;;;10.40;99.90;;;;;;5114450;28;20747;-48
2022/01/03 07:46:57;;;;;;;1.23;0.40;;;10.50;99.90;;;;;;5114724;28;20450;-53
2022/01/03 07:49:24;;;;;;;1.90;0.40;;;10.40;99.90;;;;;;5114711;28;20847;-53
2022/01/03 07:51:52;;;;;;;1.40;0.30;;;10.40;99.90;;;;;;5113561;28;20420;-53
2022/01/03 07:54:19;;;;;;;2.47;0.40;;;10.60;99.90;;;;;;5105294;28;20438;-54
2022/01/03 07:56:46;;;;;;;1.08;0.30;;;10.60;99.90;;;;;;5105000;28;20447;-51
2022/01/03 07:59:13;;;;;;;2.15;0.40;;;10.50;99.90;;;;;;5101015;28;20433;-53
2022/01/03 08:01:42;;;;;;;1.88;0.50;;;10.40;99.90;;;;;;5105661;28;20431;-53
2022/01/03 08:04:09;;;;;;;0.85;0.40;;;10.20;99.90;;;;;;5111044;28;20444;-53
2022/01/03 08:06:36;;;;;;;1.10;0.40;;;10.20;99.90;;;;;;5093519;28;20422;-53
2022/01/03 08:09:03;;;;;;;1.98;0.40;;;10.30;99.90;;;;;;5093293;28;20482;-52
2022/01/03 08:11:31;;;;;;;1.60;0.40;;;10.50;99.90;;;;;;5096171;28;20430;-50
2022/01/03 08:13:58;;;;;;;0.68;0.30;;;10.50;99.90;;;;;;5091960;28;20871;-54
2022/01/03 08:16:25;;;;;;;1.45;0.40;;;10.30;99.90;;;;;;5095170;28;20427;-52
2022/01/03 08:18:53;;;;;;;2.20;0.40;;;10.20;99.90;;;;;;5095846;28;20799;-52
2022/01/03 08:21:20;;;;;;;2.50;0.40;;;9.90;99.90;;;;;;5094311;28;20496;-54
2022/01/03 08:23:47;;;;;;;2.80;0.40;;;9.70;99.90;;;;;;5098517;28;20435;-55
2022/01/03 08:26:14;;;;;;;3.20;1.90;;;9.70;99.90;;;;;;5107133;28;20419;-54
2022/01/03 08:28:41;;;;;;;6.20;2.90;;;9.80;99.90;;;;;;5113425;28;20436;-54
2022/01/03 08:31:08;;;;;;;2.63;1.00;;;9.90;99.90;;;;;;5111092;28;20428;-52
2022/01/03 08:33:36;;;;;;;2.30;1.00;;;9.80;99.90;;;;;;5118138;28;20851;-56
2022/01/03 08:36:05;;;;;;;2.45;0.40;;;9.90;99.90;;;;;;5115477;28;20424;-53
2022/01/03 08:38:32;;;;;;;1.20;0.60;;;10.00;99.90;;;;;;5115890;28;20793;-57
2022/01/03 08:40:59;;;;;;;3.00;0.80;;;10.10;99.90;;;;;;5113921;28;20418;-57
2022/01/03 08:43:26;;;;;;;1.95;0.60;;;10.20;99.90;;;;;;5113632;28;20765;-55
2022/01/03 08:45:53;;;;;;;2.78;0.40;;;10.40;99.90;;;;;;5115532;28;20420;-56
2022/01/03 08:48:20;;;;;;;1.17;0.40;;;10.40;99.90;;;;;;5117104;28;20420;-52
2022/01/03 08:50:50;;;;;;;0.80;0.30;;;10.60;99.90;;;;;;5102896;28;20784;-55
2022/01/03 08:53:21;;;;;;;1.40;0.40;;;10.60;99.90;;;;;;5100202;28;20426;-51
2022/01/03 08:55:48;;;;;;;1.85;0.40;;;10.60;99.90;;;;;;5102149;28;20442;-56
2022/01/03 08:58:16;;;;;;;2.78;0.40;;;10.60;99.90;;;;;;5115978;28;20423;-54
2022/01/03 09:00:43;;;;;;;1.20;0.40;;;10.70;99.90;;;;;;5111261;28;20905;-55
2022/01/03 09:03:10;;;;;;;0.98;0.40;;;10.80;99.90;;;;;;5114031;28;20447;-58
2022/01/03 09:05:37;;;;;;;1.27;0.40;;;10.80;99.90;;;;;;5115348;28;20420;-57
2022/01/03 09:08:05;;;;;;;1.70;0.40;;;10.90;99.90;;;;;;5116449;28;20492;-58
2022/01/03 09:10:33;;;;;;;1.05;0.40;;;11.20;99.90;;;;;;5102805;28;20772;-58
2022/01/03 09:13:01;;;;;;;1.50;0.40;;;11.10;99.90;;;;;;5105546;28;20432;-58
2022/01/03 09:15:28;;;;;;;1.90;0.40;;;11.20;99.90;;;;;;5104844;28;20429;-58
2022/01/03 09:17:55;;;;;;;2.20;0.30;;;11.30;99.90;;;;;;5107031;28;20433;-58
2022/01/03 09:20:22;;;;;;;0.90;0.35;;;11.30;99.90;;;;;;5106004;28;20837;-58
2022/01/03 09:22:52;;;;;;;1.00;0.40;;;11.40;99.90;;;;;;5109241;28;20473;-58
2022/01/03 09:30:51;;;;;;;0.80;0.40;;;11.20;99.90;;;;;;5112231;28;20720;-58
2022/01/03 09:33:19;;;;;;;0.98;0.40;;;11.10;99.90;;;;;;5114525;28;20427;-58
2022/01/03 09:35:46;;;;;;;1.35;0.43;;;11.20;99.90;;;;;;5098068;28;20528;-59
2022/01/03 09:38:13;;;;;;;1.80;0.50;;;11.30;99.90;;;;;;5105030;28;20439;-58
2022/01/03 09:40:41;;;;;;;1.50;0.40;;;11.20;99.90;;;;;;5100385;28;20480;-58
2022/01/03 09:43:15;;;;;;;1.50;0.32;;;11.20;99.90;;;;;;5107454;28;20416;-58
2022/01/03 09:45:46;;;;;;;3.00;0.50;;;11.20;99.90;;;;;;5095027;28;20696;-59
2022/01/03 09:48:14;;;;;;;1.40;0.30;;;11.20;99.90;;;;;;5105001;28;20417;-55
2022/01/03 09:50:43;;;;;;;0.85;0.30;;;11.30;99.90;;;;;;5104595;28;20867;-55
2022/01/03 09:53:12;;;;;;;0.70;0.30;;;11.30;99.90;;;;;;5096578;28;20417;-56
2022/01/03 09:55:41;;;;;;;0.90;0.25;;;11.40;99.90;;;;;;5112326;28;20420;-56
2022/01/03 09:58:13;;;;;;;1.10;0.30;;;11.50;99.90;;;;;;5104092;28;20865;-56
2022/01/03 10:00:40;;;;;;;2.10;0.30;;;11.40;99.90;;;;;;5104056;28;20532;-56
2022/01/03 10:03:08;;;;;;;1.35;0.30;;;11.50;99.90;;;;;;5098472;28;20428;-55
2022/01/03 10:05:36;;;;;;;1.50;0.40;;;11.50;99.90;;;;;;5110496;28;20435;-55
2022/01/03 10:08:03;;;;;;;1.10;0.40;;;11.60;99.90;;;;;;5101810;28;20444;-57
2022/01/03 10:10:30;;;;;;;2.95;0.45;;;11.70;99.90;;;;;;5096727;28;20440;-56
2022/01/03 10:12:57;;;;;;;5.00;2.42;;;11.70;99.90;;;;;;5106357;28;20416;-57
2022/01/03 10:15:25;;;;;;;1.20;0.50;;;11.70;99.90;;;;;;5108882;28;20435;-55
2022/01/03 10:17:53;;;;;;;1.00;0.40;;;11.70;99.90;;;;;;5095655;28;20636;-56
2022/01/03 10:20:20;;;;;;;1.73;0.30;;;11.60;99.90;;;;;;5102601;28;20437;-56
2022/01/03 10:22:47;;;;;;;3.90;1.23;;;11.60;99.90;;;;;;5104207;28;20423;-56
2022/01/03 10:25:21;;;;;;;3.50;0.50;;;11.60;99.90;;;;;;5108781;28;20424;-56
2022/01/03 10:27:50;;;;;;;1.90;0.50;;;11.70;99.90;;;;;;5098139;28;20424;-52
2022/01/03 10:30:32;;;;;;;2.53;0.57;;;11.70;99.90;;;;;;5109814;28;20433;-54
2022/01/03 10:33:02;;;;;;;1.02;0.38;;;11.80;99.90;;;;;;5103910;28;20426;-53
2022/01/03 10:35:39;;;;;;;1.30;0.40;;;11.90;99.90;;;;;;5103840;28;20481;-56
2022/01/03 10:38:07;;;;;;;1.48;0.30;;;11.90;99.90;;;;;;5100921;28;20412;-55
2022/01/03 10:40:34;;;;;;;2.20;0.40;;;11.80;99.90;;;;;;5107098;28;20714;-54
2022/01/03 10:43:15;;;;;;;0.70;0.30;;;11.80;99.90;;;;;;5099017;28;20426;-54
2022/01/03 10:45:44;;;;;;;1.08;0.30;;;11.70;99.90;;;;;;5094222;28;20422;-55
2022/01/03 10:48:29;;;;;;;1.40;0.38;;;11.70;99.90;;;;;;5102536;28;20428;-54
2022/01/03 10:50:56;;;;;;;4.97;0.90;;;11.80;99.90;;;;;;5110581;28;20782;-54
2022/01/03 10:53:38;;;;;;;3.22;0.60;;;11.80;99.90;;;;;;5109607;28;20523;-54
2022/01/03 10:56:28;;;;;;;1.80;0.43;;;11.90;99.90;;;;;;5100289;28;20424;-54
2022/01/03 10:58:56;;;;;;;1.77;0.40;;;12.00;99.90;;;;;;5098822;28;20426;-54
2022/01/03 11:01:26;;;;;;;1.70;0.50;;;12.00;99.90;;;;;;5110938;28;20493;-53
2022/01/03 11:03:55;;;;;;;1.60;0.40;;;12.00;99.90;;;;;;5107419;28;20429;-54
2022/01/03 11:06:25;;;;;;;0.90;0.30;;;12.10;99.90;;;;;;5101520;28;20485;-55
2022/01/03 11:11:40;;;;;;;1.02;0.30;;;12.20;99.90;;;;;;5098651;28;20499;-54
2022/01/03 11:14:07;;;;;;;2.20;0.30;;;12.20;99.90;;;;;;5098755;28;20749;-54
2022/01/03 11:16:40;;;;;;;0.70;0.30;;;12.20;99.90;;;;;;5113854;28;20424;-53
2022/01/03 11:19:07;;;;;;;1.10;0.30;;;12.20;99.90;;;;;;5098693;28;20506;-51
2022/01/03 11:21:37;;;;;;;1.45;0.30;;;12.20;99.90;;;;;;5110507;28;20412;-54
2022/01/03 11:24:09;;;;;;;1.00;0.30;;;12.20;99.90;;;;;;5103352;28;20903;-52
2022/01/03 11:26:40;;;;;;;2.10;0.30;;;12.20;99.90;;;;;;5102493;28;20425;-53
2022/01/03 11:29:08;;;;;;;1.00;0.30;;;12.20;99.90;;;;;;5103599;28;20496;-50
2022/01/03 11:31:39;;;;;;;0.60;0.20;;;12.30;99.90;;;;;;5109754;28;20430;-54
2022/01/03 11:34:07;;;;;;;1.23;0.30;;;12.30;99.90;;;;;;5098239;28;20437;-50
2022/01/03 11:36:35;;;;;;;0.77;0.30;;;12.30;99.90;;;;;;5096816;28;20467;-51
2022/01/03 11:39:05;;;;;;;0.60;0.30;;;12.40;99.90;;;;;;5100143;28;20429;-52
2022/01/03 11:41:35;;;;;;;1.30;0.20;;;12.50;99.90;;;;;;5101160;28;20763;-51
2022/01/03 11:44:03;;;;;;;3.33;0.60;;;12.50;99.90;;;;;;5102892;28;20435;-54
2022/01/03 11:46:31;;;;;;;1.60;0.40;;;12.50;99.90;;;;;;5108269;28;20531;-54
2022/01/03 11:49:00;;;;;;;0.82;0.40;;;12.50;99.90;;;;;;5113048;28;20431;-54
2022/01/03 11:51:30;;;;;;;0.82;0.40;;;12.60;99.90;;;;;;5110373;28;20450;-51
2022/01/03 11:53:58;;;;;;;1.20;0.40;;;12.70;99.90;;;;;;5098613;28;20434;-53
2022/01/03 11:56:28;;;;;;;1.50;0.40;;;12.60;99.90;;;;;;5089637;28;20488;-54
2022/01/03 11:59:18;;;;;;;1.10;0.30;;;12.60;99.90;;;;;;5097700;28;20843;-49
2022/01/03 12:04:35;;;;;;;1.02;0.30;;;12.50;99.90;;;;;;5093707;28;20415;-52
2022/01/03 12:07:07;;;;;;;0.63;0.20;;;12.60;99.90;;;;;;5093347;28;20429;-50
2022/01/03 12:09:37;;;;;;;0.50;0.20;;;12.60;99.90;;;;;;5092997;28;20852;-52
2022/01/03 12:12:05;;;;;;;1.20;0.30;;;12.60;99.90;;;;;;5091205;28;20422;-54
2022/01/03 12:14:46;;;;;;;1.88;0.35;;;12.60;99.90;;;;;;5083992;28;20722;-53
2022/01/03 12:17:14;;;;;;;1.70;0.50;;;12.70;99.90;;;;;;5091074;28;20487;-55
2022/01/03 12:19:46;;;;;;;0.50;0.30;;;12.70;99.90;;;;;;5092093;28;20487;-53
2022/01/03 12:22:15;;;;;;;1.40;0.30;;;12.60;99.90;;;;;;5092628;28;20841;-52
2022/01/03 12:24:54;;;;;;;0.90;0.20;;;12.60;99.90;;;;;;5093053;28;20425;-53
2022/01/03 12:27:31;;;;;;;0.80;0.20;;;12.60;99.90;;;;;;5090123;28;20813;-52
2022/01/03 12:30:34;;;;;;;1.30;0.40;;;12.60;99.90;;;;;;5092577;28;20445;-52
2022/01/03 12:33:25;;;;;;;0.80;0.20;;;12.60;99.90;;;;;;5091897;28;20713;-51
2022/01/03 12:36:19;;;;;;;1.23;0.30;;;12.60;99.90;;;;;;5092329;28;20678;-55
2022/01/03 12:39:08;;;;;;;0.80;0.20;;;12.60;99.90;;;;;;5094135;28;20426;-52
2022/01/03 12:41:44;;;;;;;0.70;0.30;;;12.60;99.90;;;;;;5097175;28;20424;-52
2022/01/03 12:44:12;;;;;;;0.90;0.30;;;12.60;99.90;;;;;;5114404;28;20432;-53
2022/01/03 12:46:39;;;;;;;2.22;0.30;;;12.60;99.90;;;;;;5112862;28;20704;-53
2022/01/03 12:49:29;;;;;;;0.50;0.30;;;12.50;99.90;;;;;;5111286;28;20420;-50
2022/01/03 12:52:16;;;;;;;0.80;0.30;;;12.50;99.90;;;;;;5111883;28;20524;-51
2022/01/03 12:54:44;;;;;;;0.55;0.20;;;12.40;99.90;;;;;;5114344;28;20455;-53
2022/01/03 12:57:16;;;;;;;1.30;0.20;;;12.40;99.90;;;;;;5113400;28;20419;-50
2022/01/03 12:59:44;;;;;;;0.85;0.20;;;12.50;99.90;;;;;;5113569;28;20723;-52
2022/01/03 13:02:30;;;;;;;0.52;0.20;;;12.50;99.90;;;;;;5113198;28;20721;-53
2022/01/03 13:04:57;;;;;;;2.10;0.30;;;12.50;99.90;;;;;;5114128;28;20492;-56
2022/01/03 13:07:25;;;;;;;1.00;0.20;;;12.50;99.90;;;;;;5111640;28;20416;-57
2022/01/03 13:09:52;;;;;;;1.30;0.30;;;12.50;99.90;;;;;;5111136;28;20854;-56
2022/01/03 13:12:21;;;;;;;2.20;0.30;;;12.50;99.90;;;;;;5111739;28;20428;-57
2022/01/03 13:14:48;;;;;;;0.60;0.20;;;12.50;99.90;;;;;;5111729;28;20885;-56
2022/01/03 13:17:16;;;;;;;0.80;0.20;;;12.40;99.90;;;;;;5110401;28;20419;-57
2022/01/03 13:19:44;;;;;;;1.17;0.30;;;12.30;99.90;;;;;;5116170;28;20424;-58